createdAt,value
2017-12-31T00:00:57.105Z,10.80
2017-12-31T00:05:58.648Z,10.90
2017-12-31T00:11:00.170Z,10.90
2017-12-31T00:16:01.725Z,10.90
2017-12-31T00:21:03.164Z,11.00
2017-12-31T00:26:04.689Z,11.00
2017-12-31T00:31:06.228Z,10.80
2017-12-31T00:36:07.775Z,10.80
2017-12-31T00:41:09.334Z,10.70
2017-12-31T00:46:10.842Z,10.70
2017-12-31T00:51:12.396Z,10.60
2017-12-31T00:56:14.034Z,10.70
2017-12-31T01:01:15.498Z,10.70
2017-12-31T01:06:17.031Z,10.70
2017-12-31T01:11:18.607Z,10.80
2017-12-31T01:16:20.842Z,10.80
2017-12-31T01:21:22.371Z,10.70
2017-12-31T01:26:23.981Z,10.70
2017-12-31T01:31:25.525Z,10.80
2017-12-31T01:36:27.085Z,10.80
2017-12-31T01:41:28.569Z,10.70
2017-12-31T01:46:30.135Z,10.70
2017-12-31T01:51:31.617Z,10.70
2017-12-31T01:56:33.154Z,10.70
2017-12-31T02:01:34.679Z,10.80
2017-12-31T02:06:36.957Z,10.80
2017-12-31T02:11:38.505Z,10.70
2017-12-31T02:16:40.036Z,10.70
2017-12-31T02:21:41.588Z,10.70
2017-12-31T02:26:43.868Z,10.80
2017-12-31T02:31:45.415Z,10.70
2017-12-31T02:36:46.890Z,10.70
2017-12-31T02:41:48.446Z,10.60
2017-12-31T02:46:49.930Z,10.70
2017-12-31T02:51:51.496Z,11.00
2017-12-31T02:56:53.057Z,11.30
2017-12-31T03:01:54.612Z,11.50
2017-12-31T03:06:56.198Z,11.70
2017-12-31T03:11:57.729Z,11.70
2017-12-31T03:16:59.306Z,11.90
2017-12-31T03:22:00.819Z,12.00
2017-12-31T03:27:03.043Z,12.10
2017-12-31T03:32:04.567Z,12.00
2017-12-31T03:37:06.800Z,12.10
2017-12-31T03:42:08.330Z,12.10
2017-12-31T03:47:10.595Z,12.30
2017-12-31T03:52:12.167Z,12.30
2017-12-31T03:57:14.422Z,12.40
2017-12-31T04:02:15.925Z,12.30
2017-12-31T04:07:18.349Z,12.50
2017-12-31T04:12:20.336Z,12.40
2017-12-31T04:17:21.854Z,12.40
2017-12-31T04:22:24.133Z,12.50
2017-12-31T04:27:25.688Z,12.40
2017-12-31T04:32:27.189Z,12.50
2017-12-31T04:37:29.430Z,12.60
2017-12-31T04:42:30.900Z,12.50
2017-12-31T04:47:32.397Z,12.60
2017-12-31T04:52:34.685Z,12.60
2017-12-31T04:57:36.968Z,12.60
2017-12-31T05:02:39.240Z,12.60
2017-12-31T05:07:40.785Z,12.60
2017-12-31T05:12:42.345Z,12.60
2017-12-31T05:17:43.864Z,12.70
2017-12-31T05:22:45.415Z,12.70
2017-12-31T05:27:47.757Z,12.70
2017-12-31T05:32:49.289Z,12.60
2017-12-31T05:37:51.629Z,12.70
2017-12-31T05:42:53.132Z,12.60
2017-12-31T05:47:55.486Z,12.70
2017-12-31T05:52:57.036Z,12.60
2017-12-31T05:57:58.551Z,12.70
2017-12-31T06:03:01.008Z,12.80
2017-12-31T06:08:02.503Z,12.60
2017-12-31T06:13:04.797Z,12.80
2017-12-31T06:18:07.086Z,12.80
2017-12-31T06:23:08.530Z,12.70
2017-12-31T06:28:10.072Z,12.80
2017-12-31T06:33:11.619Z,12.80
2017-12-31T06:38:13.222Z,12.70
2017-12-31T06:43:14.736Z,12.80
2017-12-31T06:48:16.239Z,12.70
2017-12-31T06:53:17.814Z,12.70
2017-12-31T06:58:19.374Z,12.60
2017-12-31T07:03:20.888Z,12.60
2017-12-31T07:08:23.126Z,12.40
2017-12-31T07:13:24.618Z,12.30
2017-12-31T07:18:26.172Z,12.40
2017-12-31T07:23:27.672Z,12.30
2017-12-31T07:28:29.920Z,12.30
2017-12-31T07:33:31.439Z,12.20
2017-12-31T07:38:32.902Z,12.40
2017-12-31T07:43:34.331Z,12.40
2017-12-31T07:48:35.827Z,12.50
2017-12-31T07:53:37.373Z,12.70
2017-12-31T07:58:38.884Z,12.80
2017-12-31T08:03:40.429Z,12.80
2017-12-31T08:08:41.942Z,12.80
2017-12-31T08:13:43.467Z,12.80
2017-12-31T08:18:44.982Z,12.70
2017-12-31T08:23:46.478Z,12.70
2017-12-31T08:28:48.750Z,12.80
2017-12-31T08:33:50.223Z,12.70
2017-12-31T08:38:51.680Z,12.90
2017-12-31T08:43:53.195Z,12.90
2017-12-31T08:48:54.711Z,12.80
2017-12-31T08:53:56.476Z,12.80
2017-12-31T08:58:57.965Z,12.80
2017-12-31T09:03:59.499Z,12.80
2017-12-31T09:09:01.284Z,12.80
2017-12-31T09:14:02.810Z,12.80
2017-12-31T09:19:04.303Z,12.80
2017-12-31T09:24:06.057Z,12.70
2017-12-31T09:29:07.598Z,12.70
2017-12-31T09:34:09.923Z,12.60
2017-12-31T09:39:11.459Z,12.50
2017-12-31T09:44:12.963Z,12.70
2017-12-31T09:49:14.453Z,12.70
2017-12-31T09:54:16.284Z,12.80
2017-12-31T09:59:17.792Z,12.90
2017-12-31T10:04:19.431Z,12.90
2017-12-31T10:09:20.873Z,13.10
2017-12-31T10:14:22.354Z,13.20
2017-12-31T10:19:23.962Z,13.30
2017-12-31T10:24:25.537Z,13.30
2017-12-31T10:29:27.097Z,13.40
2017-12-31T10:34:28.735Z,13.50
2017-12-31T10:39:30.330Z,13.50
2017-12-31T10:44:31.997Z,13.50
2017-12-31T10:49:33.574Z,13.40
2017-12-31T10:54:35.083Z,13.50
2017-12-31T10:59:36.630Z,13.60
2017-12-31T11:04:38.980Z,13.70
2017-12-31T11:09:40.483Z,13.60
2017-12-31T11:14:42.713Z,13.60
2017-12-31T11:19:44.174Z,13.60
2017-12-31T11:24:45.687Z,13.60
2017-12-31T11:29:47.174Z,13.50
2017-12-31T11:34:49.430Z,13.40
2017-12-31T11:39:51.018Z,13.40
2017-12-31T11:44:53.374Z,13.40
2017-12-31T11:49:54.918Z,13.30
2017-12-31T11:54:56.489Z,13.40
2017-12-31T11:59:58.000Z,13.40
2017-12-31T12:04:59.546Z,13.30
2017-12-31T12:10:01.021Z,13.30
2017-12-31T12:15:02.554Z,13.30
2017-12-31T12:20:04.156Z,13.30
2017-12-31T12:25:05.601Z,13.30
2017-12-31T12:30:07.096Z,13.30
2017-12-31T12:35:08.649Z,13.30
2017-12-31T12:40:10.104Z,13.30
2017-12-31T12:45:11.678Z,13.40
2017-12-31T12:50:13.163Z,13.60
2017-12-31T12:55:14.736Z,13.60
2017-12-31T13:00:16.431Z,13.60
2017-12-31T13:05:18.748Z,13.70
2017-12-31T13:10:20.385Z,13.70
2017-12-31T13:15:22.653Z,13.70
2017-12-31T13:20:24.214Z,13.70
2017-12-31T13:25:25.707Z,13.80
2017-12-31T13:30:28.061Z,14.00
2017-12-31T13:35:29.591Z,13.90
2017-12-31T13:40:31.068Z,14.00
2017-12-31T13:45:32.650Z,14.00
2017-12-31T13:50:34.180Z,13.90
2017-12-31T13:55:35.742Z,13.90
2017-12-31T14:00:37.302Z,13.90
2017-12-31T14:05:39.497Z,14.00
2017-12-31T14:10:41.043Z,13.90
2017-12-31T14:15:43.272Z,14.00
2017-12-31T14:20:44.755Z,13.90
2017-12-31T14:25:46.323Z,14.00
2017-12-31T14:30:47.906Z,14.00
2017-12-31T14:35:49.453Z,14.10
2017-12-31T14:40:51.017Z,14.00
2017-12-31T14:45:53.455Z,14.10
2017-12-31T14:50:55.059Z,14.10
2017-12-31T14:55:56.544Z,14.10
2017-12-31T15:00:58.104Z,14.00
2017-12-31T15:06:00.282Z,13.80
2017-12-31T15:11:01.870Z,13.70
2017-12-31T15:16:03.375Z,13.70
2017-12-31T15:21:04.833Z,13.70
2017-12-31T15:26:06.308Z,13.70
2017-12-31T15:31:08.506Z,13.50
2017-12-31T15:36:10.034Z,13.50
2017-12-31T15:41:11.555Z,13.50
2017-12-31T15:46:13.215Z,13.50
2017-12-31T15:51:14.831Z,13.60
2017-12-31T15:56:16.325Z,13.40
2017-12-31T16:01:18.623Z,13.30
2017-12-31T16:06:20.872Z,13.20
2017-12-31T16:11:22.396Z,13.10
2017-12-31T16:16:23.961Z,13.10
2017-12-31T16:21:25.483Z,13.20
2017-12-31T16:26:27.195Z,13.30
2017-12-31T16:31:28.696Z,13.40
2017-12-31T16:36:30.135Z,13.30
2017-12-31T16:41:31.872Z,13.30
2017-12-31T16:46:34.065Z,13.50
2017-12-31T16:51:36.341Z,13.40
2017-12-31T16:56:38.848Z,13.30
2017-12-31T17:01:40.411Z,13.30
2017-12-31T17:06:42.693Z,13.10
2017-12-31T17:11:44.980Z,13.00
2017-12-31T17:16:47.345Z,12.90
2017-12-31T17:21:48.799Z,12.90
2017-12-31T17:26:50.336Z,12.90
2017-12-31T17:31:51.855Z,12.90
2017-12-31T17:36:54.181Z,12.80
2017-12-31T17:41:55.798Z,12.80
2017-12-31T17:46:57.307Z,12.80
2017-12-31T17:51:58.833Z,12.70
2017-12-31T17:57:00.400Z,12.60
2017-12-31T18:02:01.979Z,12.60
2017-12-31T18:07:03.515Z,12.50
2017-12-31T18:12:05.224Z,12.50
2017-12-31T18:17:07.491Z,12.30
2017-12-31T18:22:09.247Z,12.20
2017-12-31T18:27:10.816Z,12.20
2017-12-31T18:32:12.368Z,12.10
2017-12-31T18:37:13.842Z,12.00
2017-12-31T18:42:15.391Z,12.00
2017-12-31T18:47:16.989Z,12.00
2017-12-31T18:52:18.587Z,12.00
2017-12-31T18:57:20.022Z,11.90
2017-12-31T19:02:21.600Z,12.00
2017-12-31T19:07:23.145Z,12.00
2017-12-31T19:12:24.684Z,12.10
2017-12-31T19:17:26.194Z,12.20
2017-12-31T19:22:27.824Z,12.20
2017-12-31T19:27:29.298Z,12.40
2017-12-31T19:32:30.871Z,12.40
2017-12-31T19:37:32.400Z,12.40
2017-12-31T19:42:34.717Z,12.30
2017-12-31T19:47:36.260Z,12.20
2017-12-31T19:52:37.718Z,12.30
2017-12-31T19:57:39.968Z,12.20
2017-12-31T20:02:41.428Z,12.20
2017-12-31T20:07:42.942Z,12.30
2017-12-31T20:12:45.248Z,12.20
2017-12-31T20:17:46.769Z,12.10
2017-12-31T20:22:48.275Z,12.20
2017-12-31T20:27:49.859Z,12.20
2017-12-31T20:32:51.344Z,12.20
2017-12-31T20:37:52.854Z,12.20
2017-12-31T20:42:55.136Z,12.10
2017-12-31T20:47:57.473Z,12.00
2017-12-31T20:52:59.012Z,12.00
2017-12-31T20:58:00.508Z,12.00
2017-12-31T21:03:02.036Z,11.80
2017-12-31T21:08:03.572Z,11.70
2017-12-31T21:13:05.127Z,11.70
2017-12-31T21:18:06.925Z,11.60
2017-12-31T21:23:09.182Z,11.60
2017-12-31T21:28:10.686Z,11.60
2017-12-31T21:33:12.957Z,11.60
2017-12-31T21:38:14.443Z,11.60
2017-12-31T21:43:16.674Z,11.60
2017-12-31T21:48:18.222Z,11.60
2017-12-31T21:53:19.852Z,11.60
2017-12-31T21:58:22.119Z,11.60
2017-12-31T22:03:23.696Z,11.50
2017-12-31T22:08:25.349Z,11.60
2017-12-31T22:13:26.807Z,11.60
2017-12-31T22:18:28.247Z,11.60
2017-12-31T22:23:29.792Z,11.50
2017-12-31T22:28:31.328Z,12.00
2017-12-31T22:33:32.865Z,12.30
2017-12-31T22:38:34.351Z,12.50
2017-12-31T22:43:35.894Z,12.50
2017-12-31T22:48:37.432Z,12.50
2017-12-31T22:53:39.068Z,12.40
2017-12-31T22:58:40.560Z,12.30
2017-12-31T23:03:42.906Z,12.00
2017-12-31T23:08:44.420Z,12.00
2017-12-31T23:13:45.995Z,11.90
2017-12-31T23:18:47.533Z,12.00
2017-12-31T23:23:49.928Z,11.80
2017-12-31T23:28:51.484Z,11.70
2017-12-31T23:33:53.026Z,11.80
2017-12-31T23:38:54.566Z,11.70
2017-12-31T23:43:56.095Z,11.70
2017-12-31T23:48:58.388Z,11.50
2017-12-31T23:54:00.790Z,11.50
2017-12-31T23:59:03.173Z,11.40
